createdAt,value
2019-01-31T00:00:26.824Z,34.60
2019-01-31T00:01:26.790Z,34.70
2019-01-31T00:02:26.772Z,33.60
2019-01-31T00:03:26.762Z,32.50
2019-01-31T00:04:26.773Z,34.50
2019-01-31T00:05:26.758Z,34.40
2019-01-31T00:06:26.745Z,34.10
2019-01-31T00:07:26.754Z,35.50
2019-01-31T00:08:26.717Z,33.70
2019-01-31T00:09:26.726Z,33.30
2019-01-31T00:10:26.694Z,32.20
2019-01-31T00:11:26.704Z,33.10
2019-01-31T00:12:26.671Z,33.50
2019-01-31T00:13:26.663Z,33.20
2019-01-31T00:14:26.651Z,34.00
2019-01-31T00:15:26.642Z,32.70
2019-01-31T00:16:26.640Z,33.20
2019-01-31T00:17:26.631Z,35.10
2019-01-31T00:18:26.615Z,33.80
2019-01-31T00:19:26.598Z,33.60
2019-01-31T00:20:26.583Z,32.90
2019-01-31T00:21:26.571Z,33.40
2019-01-31T00:22:26.586Z,33.40
2019-01-31T00:23:26.581Z,33.70
2019-01-31T00:24:26.537Z,34.50
2019-01-31T00:25:26.533Z,33.30
2019-01-31T00:26:26.515Z,33.60
2019-01-31T00:27:26.514Z,34.30
2019-01-31T00:28:26.509Z,33.70
2019-01-31T00:29:26.491Z,34.50
2019-01-31T00:30:26.473Z,33.10
2019-01-31T00:31:26.467Z,33.00
2019-01-31T00:32:26.452Z,34.50
2019-01-31T00:33:26.474Z,34.30
2019-01-31T00:34:26.437Z,34.80
2019-01-31T00:35:26.421Z,33.30
2019-01-31T00:36:26.419Z,35.30
2019-01-31T00:37:26.398Z,33.20
2019-01-31T00:38:26.394Z,33.90
2019-01-31T00:39:26.403Z,33.70
2019-01-31T00:40:26.370Z,32.60
2019-01-31T00:41:26.355Z,33.30
2019-01-31T00:42:26.351Z,34.20
2019-01-31T00:43:26.338Z,34.40
2019-01-31T00:44:26.329Z,35.50
2019-01-31T00:45:26.315Z,34.10
2019-01-31T00:46:26.343Z,34.10
2019-01-31T00:47:26.284Z,32.80
2019-01-31T00:48:26.278Z,34.10
2019-01-31T00:49:26.270Z,34.70
2019-01-31T00:50:26.254Z,33.60
2019-01-31T00:51:26.247Z,33.80
2019-01-31T00:52:26.229Z,33.70
2019-01-31T00:53:26.228Z,33.90
2019-01-31T00:54:26.206Z,33.90
2019-01-31T00:55:26.200Z,33.60
2019-01-31T00:56:26.200Z,33.00
2019-01-31T00:57:26.185Z,33.00
2019-01-31T00:58:26.163Z,33.30
2019-01-31T00:59:26.181Z,32.90
2019-01-31T01:00:26.241Z,34.60
2019-01-31T01:01:26.145Z,34.90
2019-01-31T01:02:26.124Z,32.80
2019-01-31T01:03:26.114Z,33.30
2019-01-31T01:04:26.108Z,32.90
2019-01-31T01:05:26.118Z,32.70
2019-01-31T01:06:26.080Z,32.40
2019-01-31T01:07:26.071Z,33.00
2019-01-31T01:08:26.059Z,33.50
2019-01-31T01:09:26.089Z,34.70
2019-01-31T01:10:26.040Z,34.60
2019-01-31T01:11:26.035Z,34.00
2019-01-31T01:12:26.042Z,32.30
2019-01-31T01:13:26.033Z,33.70
2019-01-31T01:14:25.995Z,33.80
2019-01-31T01:15:25.979Z,35.10
2019-01-31T01:16:26.001Z,33.10
2019-01-31T01:17:25.959Z,34.00
2019-01-31T01:18:25.968Z,33.70
2019-01-31T01:19:25.979Z,33.70
2019-01-31T01:20:25.944Z,33.10
2019-01-31T01:21:25.916Z,33.40
2019-01-31T01:22:25.899Z,32.60
2019-01-31T01:23:25.894Z,34.70
2019-01-31T01:24:25.892Z,32.10
2019-01-31T01:25:25.877Z,32.80
2019-01-31T01:26:25.855Z,32.40
2019-01-31T01:27:25.848Z,32.50
2019-01-31T01:28:25.844Z,33.20
2019-01-31T01:29:25.856Z,32.80
2019-01-31T01:30:26.043Z,32.90
2019-01-31T01:31:25.800Z,32.60
2019-01-31T01:32:25.860Z,34.10
2019-01-31T01:33:25.775Z,33.00
2019-01-31T01:34:25.801Z,32.70
2019-01-31T01:35:25.761Z,33.30
2019-01-31T01:36:25.747Z,33.10
2019-01-31T01:37:25.732Z,33.30
2019-01-31T01:38:25.731Z,32.30
2019-01-31T01:39:25.717Z,34.30
2019-01-31T01:40:25.708Z,33.20
2019-01-31T01:41:25.701Z,33.10
2019-01-31T01:42:25.670Z,32.70
2019-01-31T01:43:25.668Z,32.40
2019-01-31T01:44:25.654Z,32.80
2019-01-31T01:45:25.641Z,32.40
2019-01-31T01:46:25.642Z,33.00
2019-01-31T01:47:25.630Z,32.70
2019-01-31T01:48:25.607Z,31.50
2019-01-31T01:49:25.604Z,31.50
2019-01-31T01:50:25.583Z,31.90
2019-01-31T01:51:25.574Z,32.50
2019-01-31T01:52:25.627Z,32.20
2019-01-31T01:53:25.551Z,32.50
2019-01-31T01:54:25.544Z,31.50
2019-01-31T01:55:25.535Z,32.60
2019-01-31T01:56:25.529Z,31.60
2019-01-31T01:57:25.517Z,31.90
2019-01-31T01:58:25.519Z,33.40
2019-01-31T01:59:25.513Z,33.70
2019-01-31T02:00:25.480Z,32.50
2019-01-31T02:01:25.478Z,33.10
2019-01-31T02:02:25.455Z,31.90
2019-01-31T02:03:25.446Z,32.10
2019-01-31T02:04:25.452Z,31.70
2019-01-31T02:05:25.445Z,32.30
2019-01-31T02:06:25.413Z,33.30
2019-01-31T02:07:25.408Z,33.10
2019-01-31T02:08:25.392Z,31.90
2019-01-31T02:09:30.160Z,32.40
2019-01-31T02:10:26.372Z,33.20
2019-01-31T02:11:25.415Z,32.60
2019-01-31T02:12:25.338Z,31.50
2019-01-31T02:13:25.332Z,33.30
2019-01-31T02:14:25.342Z,32.00
2019-01-31T02:15:25.315Z,31.50
2019-01-31T02:16:25.296Z,32.50
2019-01-31T02:17:25.285Z,33.60
2019-01-31T02:18:25.274Z,32.60
2019-01-31T02:19:25.266Z,31.00
2019-01-31T02:20:25.255Z,32.30
2019-01-31T02:21:25.265Z,32.50
2019-01-31T02:22:25.235Z,32.20
2019-01-31T02:23:25.225Z,31.30
2019-01-31T02:24:25.222Z,32.00
2019-01-31T02:25:25.198Z,31.20
2019-01-31T02:26:25.201Z,31.10
2019-01-31T02:27:25.179Z,31.60
2019-01-31T02:28:25.168Z,30.60
2019-01-31T02:29:25.156Z,32.20
2019-01-31T02:30:25.158Z,31.70
2019-01-31T02:31:25.140Z,31.40
2019-01-31T02:32:25.128Z,29.50
2019-01-31T02:33:25.130Z,31.30
2019-01-31T02:34:25.100Z,31.10
2019-01-31T02:35:25.091Z,31.50
2019-01-31T02:36:25.080Z,30.50
2019-01-31T02:37:25.068Z,32.60
2019-01-31T02:38:25.080Z,32.40
2019-01-31T02:39:25.044Z,31.10
2019-01-31T02:40:25.033Z,31.60
2019-01-31T02:41:25.020Z,31.80
2019-01-31T02:42:25.015Z,31.10
2019-01-31T02:43:25.010Z,30.80
2019-01-31T02:44:25.011Z,31.60
2019-01-31T02:45:24.974Z,30.70
2019-01-31T02:46:24.971Z,32.20
2019-01-31T02:47:24.958Z,30.90
2019-01-31T02:48:24.992Z,30.50
2019-01-31T02:49:24.943Z,29.80
2019-01-31T02:50:24.929Z,32.00
2019-01-31T02:51:24.911Z,31.80
2019-01-31T02:52:24.901Z,30.50
2019-01-31T02:53:24.892Z,30.90
2019-01-31T02:54:24.887Z,31.40
2019-01-31T02:55:24.891Z,30.90
2019-01-31T02:56:25.981Z,32.40
2019-01-31T02:57:24.848Z,31.10
2019-01-31T02:58:24.836Z,29.80
2019-01-31T02:59:24.830Z,31.30
2019-01-31T03:00:24.821Z,30.20
2019-01-31T03:01:24.822Z,30.00
2019-01-31T03:02:24.792Z,30.40
2019-01-31T03:03:24.882Z,29.40
2019-01-31T03:04:24.772Z,30.60
2019-01-31T03:05:24.770Z,32.00
2019-01-31T03:06:24.751Z,29.90
2019-01-31T03:07:24.764Z,29.20
2019-01-31T03:08:24.782Z,30.40
2019-01-31T03:09:24.715Z,29.60
2019-01-31T03:10:24.705Z,30.00
2019-01-31T03:11:24.702Z,29.90
2019-01-31T03:12:24.691Z,29.80
2019-01-31T03:13:24.673Z,30.20
2019-01-31T03:14:24.663Z,30.80
2019-01-31T03:15:24.650Z,30.10
2019-01-31T03:16:24.641Z,29.00
2019-01-31T03:17:24.635Z,29.50
2019-01-31T03:18:24.788Z,30.10
2019-01-31T03:19:24.600Z,30.30
2019-01-31T03:20:24.588Z,29.00
2019-01-31T03:21:24.577Z,30.10
2019-01-31T03:22:24.570Z,30.00
2019-01-31T03:23:24.570Z,30.10
2019-01-31T03:24:24.557Z,29.60
2019-01-31T03:25:24.553Z,28.40
2019-01-31T03:26:24.533Z,29.20
2019-01-31T03:27:24.517Z,29.60
2019-01-31T03:28:24.519Z,28.70
2019-01-31T03:29:24.506Z,28.50
2019-01-31T03:30:25.058Z,29.70
2019-01-31T03:31:24.493Z,29.70
2019-01-31T03:32:24.457Z,30.10
2019-01-31T03:33:24.446Z,28.70
2019-01-31T03:34:24.456Z,29.30
2019-01-31T03:35:24.463Z,29.20
2019-01-31T03:36:24.414Z,29.00
2019-01-31T03:37:24.402Z,29.20
2019-01-31T03:38:24.402Z,29.10
2019-01-31T03:39:24.412Z,28.30
2019-01-31T03:40:24.389Z,28.40
2019-01-31T03:41:24.395Z,28.10
2019-01-31T03:42:24.349Z,29.60
2019-01-31T03:43:24.346Z,28.90
2019-01-31T03:44:24.407Z,28.00
2019-01-31T03:45:24.324Z,28.70
2019-01-31T03:46:24.321Z,27.30
2019-01-31T03:47:24.298Z,28.00
2019-01-31T03:48:24.358Z,28.40
2019-01-31T03:49:24.306Z,27.90
2019-01-31T03:50:24.254Z,27.50
2019-01-31T03:51:24.253Z,29.40
2019-01-31T03:52:24.232Z,28.30
2019-01-31T03:53:24.230Z,28.30
2019-01-31T03:54:24.236Z,28.50
2019-01-31T03:55:24.212Z,26.90
2019-01-31T03:56:24.199Z,27.20
2019-01-31T03:57:24.187Z,27.50
2019-01-31T03:58:24.172Z,27.60
2019-01-31T03:59:24.158Z,28.60
2019-01-31T04:00:24.172Z,28.90
2019-01-31T04:01:24.136Z,26.90
2019-01-31T04:02:24.135Z,27.90
2019-01-31T04:03:24.112Z,27.60
2019-01-31T04:04:24.133Z,27.10
2019-01-31T04:05:24.098Z,26.60
2019-01-31T04:06:24.093Z,27.00
2019-01-31T04:07:24.065Z,26.60
2019-01-31T04:08:24.066Z,27.50
2019-01-31T04:09:24.069Z,27.20
2019-01-31T04:10:24.072Z,28.60
2019-01-31T04:11:24.032Z,27.40
2019-01-31T04:12:24.038Z,28.70
2019-01-31T04:13:23.997Z,26.90
2019-01-31T04:14:27.195Z,26.40
2019-01-31T04:15:23.987Z,27.80
2019-01-31T04:16:23.970Z,28.20
2019-01-31T04:17:24.041Z,27.40
2019-01-31T04:18:23.944Z,26.90
2019-01-31T04:19:23.986Z,26.30
2019-01-31T04:20:23.945Z,26.80
2019-01-31T04:21:23.916Z,28.40
2019-01-31T04:22:23.915Z,27.00
2019-01-31T04:23:23.905Z,26.70
2019-01-31T04:24:23.883Z,27.70
2019-01-31T04:25:23.923Z,27.90
2019-01-31T04:26:23.858Z,27.90
2019-01-31T04:27:23.864Z,27.30
2019-01-31T04:28:23.839Z,28.40
2019-01-31T04:29:23.818Z,27.80
2019-01-31T04:30:23.818Z,27.50
2019-01-31T04:31:23.814Z,27.10
2019-01-31T04:32:23.793Z,27.40
2019-01-31T04:33:23.789Z,27.70
2019-01-31T04:34:23.775Z,27.20
2019-01-31T04:35:23.762Z,27.60
2019-01-31T04:36:23.751Z,27.80
2019-01-31T04:37:23.737Z,27.50
2019-01-31T04:38:23.724Z,27.40
2019-01-31T04:39:23.710Z,27.00
2019-01-31T04:40:30.870Z,26.60
2019-01-31T04:41:24.693Z,27.90
2019-01-31T04:42:23.719Z,26.90
2019-01-31T04:43:23.671Z,26.90
2019-01-31T04:44:23.697Z,27.20
2019-01-31T04:45:23.664Z,26.10
2019-01-31T04:46:23.646Z,26.20
2019-01-31T04:47:23.630Z,26.10
2019-01-31T04:48:23.662Z,26.90
2019-01-31T04:49:23.610Z,25.80
2019-01-31T04:50:23.603Z,26.60
2019-01-31T04:51:23.588Z,25.90
2019-01-31T04:52:23.574Z,26.90
2019-01-31T04:53:23.572Z,26.90
2019-01-31T04:54:23.575Z,26.30
2019-01-31T04:55:23.547Z,27.70
2019-01-31T04:56:23.527Z,25.90
2019-01-31T04:57:23.535Z,26.20
2019-01-31T04:58:23.509Z,27.00
2019-01-31T04:59:23.506Z,25.40
2019-01-31T05:00:23.505Z,26.50
2019-01-31T05:01:26.377Z,26.40
2019-01-31T05:02:23.466Z,25.50
2019-01-31T05:03:23.457Z,25.70
2019-01-31T05:04:23.454Z,25.30
2019-01-31T05:05:23.437Z,25.90
2019-01-31T05:06:23.421Z,25.80
2019-01-31T05:07:23.406Z,25.90
2019-01-31T05:08:23.392Z,27.60
2019-01-31T05:09:23.375Z,26.60
2019-01-31T05:10:23.409Z,28.60
2019-01-31T05:11:23.364Z,27.10
2019-01-31T05:12:23.349Z,27.00
2019-01-31T05:13:23.348Z,25.70
2019-01-31T05:14:23.335Z,25.10
2019-01-31T05:15:23.321Z,26.40
2019-01-31T05:16:23.353Z,25.70
2019-01-31T05:17:23.298Z,25.80
2019-01-31T05:18:23.288Z,27.90
2019-01-31T05:19:23.295Z,27.50
2019-01-31T05:20:23.629Z,26.00
2019-01-31T05:21:23.258Z,26.30
2019-01-31T05:22:23.262Z,25.50
2019-01-31T05:23:23.232Z,25.00
2019-01-31T05:24:23.246Z,26.00
2019-01-31T05:25:23.210Z,24.40
2019-01-31T05:26:23.193Z,25.00
2019-01-31T05:27:23.196Z,25.90
2019-01-31T05:28:23.211Z,25.10
2019-01-31T05:29:23.201Z,26.30
2019-01-31T05:30:23.161Z,25.70
2019-01-31T05:31:23.166Z,25.70
2019-01-31T05:32:23.131Z,25.50
2019-01-31T05:33:23.136Z,26.00
2019-01-31T05:34:23.111Z,27.50
2019-01-31T05:35:23.100Z,25.70
2019-01-31T05:36:23.101Z,26.40
2019-01-31T05:37:23.104Z,25.80
2019-01-31T05:38:23.090Z,26.60
2019-01-31T05:39:23.059Z,26.30
2019-01-31T05:40:23.046Z,24.40
2019-01-31T05:41:23.047Z,25.70
2019-01-31T05:42:23.017Z,26.40
2019-01-31T05:43:23.008Z,24.70
2019-01-31T05:44:23.008Z,26.80
2019-01-31T05:45:23.010Z,26.40
2019-01-31T05:46:23.068Z,25.70
2019-01-31T05:47:23.041Z,26.10
2019-01-31T05:48:23.178Z,26.60
2019-01-31T05:49:22.955Z,24.30
2019-01-31T05:50:22.948Z,25.90
2019-01-31T05:51:22.946Z,25.30
2019-01-31T05:52:22.916Z,25.60
2019-01-31T05:53:22.910Z,26.00
2019-01-31T05:54:22.979Z,25.10
2019-01-31T05:55:22.904Z,25.60
2019-01-31T05:56:22.880Z,27.10
2019-01-31T05:57:22.865Z,23.80
2019-01-31T05:58:22.849Z,25.60
2019-01-31T05:59:22.843Z,24.40
2019-01-31T06:00:22.856Z,24.50
2019-01-31T06:01:22.946Z,25.60
2019-01-31T06:02:22.819Z,24.30
2019-01-31T06:03:22.792Z,24.90
2019-01-31T06:04:22.790Z,25.10
2019-01-31T06:05:22.784Z,26.10
2019-01-31T06:06:22.763Z,24.00
2019-01-31T06:07:22.756Z,25.00
2019-01-31T06:08:22.829Z,25.10
2019-01-31T06:09:22.739Z,25.30
2019-01-31T06:10:22.755Z,24.40
2019-01-31T06:11:22.739Z,24.90
2019-01-31T06:12:22.702Z,25.10
2019-01-31T06:13:22.696Z,23.90
2019-01-31T06:14:22.691Z,23.10
2019-01-31T06:15:22.657Z,25.40
2019-01-31T06:16:22.653Z,24.10
2019-01-31T06:17:22.674Z,24.80
2019-01-31T06:18:22.626Z,23.80
2019-01-31T06:19:22.629Z,25.30
2019-01-31T06:20:22.650Z,25.70
2019-01-31T06:21:22.590Z,23.80
2019-01-31T06:22:24.997Z,24.20
2019-01-31T06:23:22.576Z,24.90
2019-01-31T06:24:22.579Z,24.70
2019-01-31T06:25:22.564Z,25.30
2019-01-31T06:26:22.540Z,25.10
2019-01-31T06:27:22.525Z,25.00
2019-01-31T06:28:22.660Z,25.10
2019-01-31T06:29:22.507Z,24.50
2019-01-31T06:30:22.514Z,24.90
2019-01-31T06:31:22.521Z,25.10
2019-01-31T06:32:22.490Z,24.60
2019-01-31T06:33:22.464Z,25.30
2019-01-31T06:34:22.463Z,26.40
2019-01-31T06:35:22.450Z,24.40
2019-01-31T06:36:22.494Z,24.10
2019-01-31T06:37:22.556Z,23.70
2019-01-31T06:38:22.403Z,25.90
2019-01-31T06:39:22.396Z,25.00
2019-01-31T06:40:22.387Z,26.00
2019-01-31T06:41:22.396Z,27.00
2019-01-31T06:42:22.378Z,26.60
2019-01-31T06:43:22.350Z,30.80
2019-01-31T06:44:22.346Z,26.00
2019-01-31T06:45:22.336Z,26.10
2019-01-31T06:46:22.322Z,26.60
2019-01-31T06:47:22.316Z,26.10
2019-01-31T06:48:22.323Z,26.40
2019-01-31T06:49:22.298Z,27.40
2019-01-31T06:50:22.291Z,25.80
2019-01-31T06:51:22.269Z,27.40
2019-01-31T06:52:22.265Z,28.10
2019-01-31T06:53:22.249Z,27.80
2019-01-31T06:54:22.298Z,25.90
2019-01-31T06:55:22.228Z,25.60
2019-01-31T06:56:22.255Z,25.20
2019-01-31T06:57:22.197Z,25.40
2019-01-31T06:58:22.201Z,25.10
2019-01-31T06:59:22.178Z,24.90
2019-01-31T07:00:22.168Z,23.50
2019-01-31T07:01:22.151Z,24.50
2019-01-31T07:02:22.146Z,24.80
2019-01-31T07:03:22.139Z,23.60
2019-01-31T07:04:22.127Z,25.10
2019-01-31T07:05:22.113Z,25.80
2019-01-31T07:06:22.104Z,25.20
2019-01-31T07:07:22.095Z,24.30
2019-01-31T07:08:22.073Z,24.70
2019-01-31T07:09:22.075Z,25.20
2019-01-31T07:10:22.066Z,23.60
2019-01-31T07:11:29.661Z,24.50
2019-01-31T07:12:23.031Z,24.10
2019-01-31T07:13:22.030Z,24.30
2019-01-31T07:14:22.014Z,23.40
2019-01-31T07:15:22.009Z,26.50
2019-01-31T07:16:21.999Z,23.60
2019-01-31T07:17:21.990Z,24.10
2019-01-31T07:18:21.973Z,23.50
2019-01-31T07:19:21.972Z,24.60
2019-01-31T07:20:21.944Z,23.30
2019-01-31T07:21:21.938Z,24.30
2019-01-31T07:22:21.935Z,24.00
2019-01-31T07:23:21.924Z,23.60
2019-01-31T07:24:21.909Z,23.70
2019-01-31T07:25:21.908Z,23.70
2019-01-31T07:26:21.891Z,24.30
2019-01-31T07:27:21.888Z,23.00
2019-01-31T07:28:21.856Z,23.60
2019-01-31T07:29:21.846Z,23.60
2019-01-31T07:30:21.838Z,23.00
2019-01-31T07:31:21.824Z,23.50
2019-01-31T07:32:21.830Z,23.30
2019-01-31T07:33:21.801Z,23.60
2019-01-31T07:34:21.793Z,22.70
2019-01-31T07:35:21.781Z,24.50
2019-01-31T07:36:21.783Z,24.30
2019-01-31T07:37:21.813Z,23.40
2019-01-31T07:38:21.757Z,23.40
2019-01-31T07:39:21.736Z,23.90
2019-01-31T07:40:21.724Z,23.70
2019-01-31T07:41:21.714Z,24.20
2019-01-31T07:42:21.800Z,24.30
2019-01-31T07:43:21.697Z,24.20
2019-01-31T07:44:21.689Z,24.10
2019-01-31T07:45:21.673Z,24.10
2019-01-31T07:46:21.663Z,25.30
2019-01-31T07:47:21.651Z,25.60
2019-01-31T07:48:21.651Z,24.60
2019-01-31T07:49:21.631Z,24.20
2019-01-31T07:50:21.628Z,24.10
2019-01-31T07:51:21.611Z,24.40
2019-01-31T07:52:21.603Z,24.10
2019-01-31T07:53:21.584Z,25.00
2019-01-31T07:54:21.593Z,24.40
2019-01-31T07:55:21.566Z,24.30
2019-01-31T07:56:21.550Z,22.80
2019-01-31T07:57:21.543Z,24.30
2019-01-31T07:58:21.526Z,23.70
2019-01-31T07:59:21.537Z,24.00
2019-01-31T08:00:21.521Z,23.60
2019-01-31T08:01:21.507Z,24.60
2019-01-31T08:02:21.494Z,24.10
2019-01-31T08:03:21.473Z,24.20
2019-01-31T08:04:21.461Z,25.40
2019-01-31T08:05:21.452Z,24.00
2019-01-31T08:06:21.452Z,23.60
2019-01-31T08:07:21.425Z,25.20
2019-01-31T08:08:21.415Z,25.30
2019-01-31T08:09:21.433Z,25.00
2019-01-31T08:10:21.397Z,24.50
2019-01-31T08:11:21.446Z,24.60
2019-01-31T08:12:21.399Z,25.20
2019-01-31T08:13:21.368Z,25.90
2019-01-31T08:14:21.380Z,24.40
2019-01-31T08:15:21.342Z,25.80
2019-01-31T08:16:21.342Z,25.70
2019-01-31T08:17:21.334Z,25.90
2019-01-31T08:18:21.320Z,26.40
2019-01-31T08:19:21.309Z,26.50
2019-01-31T08:20:21.298Z,25.40
2019-01-31T08:21:21.280Z,25.40
2019-01-31T08:22:21.270Z,26.60
2019-01-31T08:23:21.396Z,25.80
2019-01-31T08:24:21.265Z,24.40
2019-01-31T08:25:21.237Z,26.30
2019-01-31T08:26:21.283Z,26.60
2019-01-31T08:27:21.217Z,25.00
2019-01-31T08:28:21.202Z,24.30
2019-01-31T08:29:21.213Z,24.60
2019-01-31T08:30:21.185Z,24.90
2019-01-31T08:31:21.170Z,25.30
2019-01-31T08:32:21.160Z,25.30
2019-01-31T08:33:21.165Z,25.00
2019-01-31T08:34:21.139Z,25.20
2019-01-31T08:35:21.132Z,25.20
2019-01-31T08:36:21.109Z,25.00
2019-01-31T08:37:21.099Z,25.40
2019-01-31T08:38:21.089Z,25.00
2019-01-31T08:39:21.085Z,26.10
2019-01-31T08:40:21.077Z,24.60
2019-01-31T08:41:21.081Z,25.20
2019-01-31T08:42:21.054Z,24.70
2019-01-31T08:43:21.048Z,25.50
2019-01-31T08:44:21.032Z,25.80
2019-01-31T08:45:21.019Z,24.60
2019-01-31T08:46:21.009Z,24.10
2019-01-31T08:47:21.041Z,26.20
2019-01-31T08:48:20.997Z,25.20
2019-01-31T08:49:20.980Z,25.10
2019-01-31T08:50:20.965Z,25.00
2019-01-31T08:51:20.958Z,24.70
2019-01-31T08:52:20.956Z,23.30
2019-01-31T08:53:20.942Z,24.70
2019-01-31T08:54:20.916Z,25.20
2019-01-31T08:55:20.912Z,24.30
2019-01-31T08:56:20.913Z,26.10
2019-01-31T08:57:20.908Z,25.50
2019-01-31T08:58:20.900Z,24.90
2019-01-31T08:59:20.856Z,24.10
2019-01-31T09:00:20.918Z,26.00
2019-01-31T09:01:20.835Z,26.40
2019-01-31T09:02:20.848Z,25.20
2019-01-31T09:03:20.825Z,25.80
2019-01-31T09:04:20.841Z,25.20
2019-01-31T09:05:20.798Z,25.20
2019-01-31T09:06:20.783Z,25.10
2019-01-31T09:07:20.781Z,24.60
2019-01-31T09:08:20.760Z,26.20
2019-01-31T09:09:20.790Z,25.70
2019-01-31T09:10:20.769Z,25.70
2019-01-31T09:11:20.735Z,25.20
2019-01-31T09:12:20.717Z,24.70
2019-01-31T09:13:20.711Z,25.20
2019-01-31T09:14:20.706Z,25.80
2019-01-31T09:15:20.715Z,25.40
2019-01-31T09:16:20.683Z,24.90
2019-01-31T09:17:20.673Z,24.50
2019-01-31T09:18:20.659Z,26.30
2019-01-31T09:19:20.637Z,24.80
2019-01-31T09:20:20.648Z,24.90
2019-01-31T09:21:20.685Z,24.90
2019-01-31T09:22:20.657Z,24.80
2019-01-31T09:23:20.596Z,25.30
2019-01-31T09:24:20.589Z,25.60
2019-01-31T09:25:20.578Z,25.00
2019-01-31T09:26:20.585Z,25.20
2019-01-31T09:27:20.556Z,24.40
2019-01-31T09:28:20.552Z,24.40
2019-01-31T09:29:20.540Z,25.20
2019-01-31T09:30:20.525Z,25.30
2019-01-31T09:31:20.522Z,24.20
2019-01-31T09:32:20.554Z,25.00
2019-01-31T09:33:20.492Z,23.70
2019-01-31T09:34:20.506Z,24.00
2019-01-31T09:35:20.472Z,24.10
2019-01-31T09:36:20.465Z,24.30
2019-01-31T09:37:20.452Z,24.50
2019-01-31T09:38:20.443Z,24.00
2019-01-31T09:39:20.426Z,25.30
2019-01-31T09:40:20.413Z,25.70
2019-01-31T09:41:20.401Z,25.30
2019-01-31T09:42:26.650Z,25.50
2019-01-31T09:43:21.376Z,25.00
2019-01-31T09:44:20.365Z,25.40
2019-01-31T09:45:20.359Z,23.60
2019-01-31T09:46:20.352Z,25.20
2019-01-31T09:47:20.356Z,24.50
2019-01-31T09:48:20.327Z,25.00
2019-01-31T09:49:20.325Z,26.30
2019-01-31T09:50:20.341Z,26.00
2019-01-31T09:51:20.305Z,25.80
2019-01-31T09:52:20.274Z,25.80
2019-01-31T09:53:20.278Z,25.50
2019-01-31T09:54:20.266Z,25.70
2019-01-31T09:55:20.367Z,24.90
2019-01-31T09:56:20.242Z,23.90
2019-01-31T09:57:20.243Z,24.30
2019-01-31T09:58:20.232Z,25.40
2019-01-31T09:59:20.215Z,24.60
2019-01-31T10:00:27.028Z,25.30
2019-01-31T10:01:21.181Z,25.60
2019-01-31T10:02:20.173Z,24.60
2019-01-31T10:03:20.171Z,24.80
2019-01-31T10:04:20.145Z,25.50
2019-01-31T10:05:20.147Z,24.60
2019-01-31T10:06:20.141Z,25.30
2019-01-31T10:07:20.151Z,24.40
2019-01-31T10:08:20.104Z,24.00
2019-01-31T10:09:20.138Z,24.10
2019-01-31T10:10:20.117Z,23.20
2019-01-31T10:11:20.104Z,22.80
2019-01-31T10:12:20.156Z,23.90
2019-01-31T10:13:20.087Z,22.70
2019-01-31T10:14:20.039Z,23.60
2019-01-31T10:15:20.173Z,23.40
2019-01-31T10:16:20.089Z,22.50
2019-01-31T10:17:20.024Z,22.50
2019-01-31T10:18:20.006Z,22.40
2019-01-31T10:19:19.982Z,22.60
2019-01-31T10:20:20.357Z,23.40
2019-01-31T10:21:19.973Z,22.70
2019-01-31T10:22:20.050Z,22.30
2019-01-31T10:23:19.952Z,22.50
2019-01-31T10:24:19.940Z,26.30
2019-01-31T10:25:19.937Z,24.00
2019-01-31T10:26:19.911Z,23.90
2019-01-31T10:27:19.911Z,23.20
2019-01-31T10:28:19.892Z,23.10
2019-01-31T10:29:19.899Z,22.70
2019-01-31T10:30:19.868Z,23.70
2019-01-31T10:31:19.851Z,26.10
2019-01-31T10:32:19.843Z,23.80
2019-01-31T10:33:19.833Z,25.30
2019-01-31T10:34:22.274Z,24.40
2019-01-31T10:35:19.839Z,23.70
2019-01-31T10:36:19.848Z,22.00
2019-01-31T10:37:19.812Z,22.40
2019-01-31T10:38:19.793Z,23.00
2019-01-31T10:39:19.802Z,22.70
2019-01-31T10:40:19.768Z,24.00
2019-01-31T10:41:19.764Z,21.80
2019-01-31T10:42:19.754Z,21.90
2019-01-31T10:43:19.731Z,22.80
2019-01-31T10:44:19.725Z,22.40
2019-01-31T10:45:22.817Z,22.90
2019-01-31T10:46:19.702Z,21.10
2019-01-31T10:47:19.747Z,22.50
2019-01-31T10:48:19.675Z,21.70
2019-01-31T10:49:19.665Z,22.10
2019-01-31T10:50:19.649Z,22.80
2019-01-31T10:51:19.641Z,22.60
2019-01-31T10:52:19.649Z,21.80
2019-01-31T10:53:19.619Z,22.40
2019-01-31T10:54:19.607Z,22.10
2019-01-31T10:55:19.597Z,22.50
2019-01-31T10:56:19.592Z,22.30
2019-01-31T10:57:19.625Z,22.50
2019-01-31T10:58:19.562Z,22.00
2019-01-31T10:59:19.554Z,22.70
2019-01-31T11:00:19.542Z,22.90
2019-01-31T11:01:19.539Z,22.30
2019-01-31T11:02:19.523Z,22.80
2019-01-31T11:03:19.517Z,22.40
2019-01-31T11:04:19.493Z,20.90
2019-01-31T11:05:19.486Z,21.70
2019-01-31T11:06:19.478Z,21.10
2019-01-31T11:07:19.462Z,22.40
2019-01-31T11:08:19.452Z,22.00
2019-01-31T11:09:19.459Z,21.60
2019-01-31T11:10:19.420Z,21.90
2019-01-31T11:11:19.417Z,21.80
2019-01-31T11:12:19.408Z,22.30
2019-01-31T11:13:19.403Z,24.00
2019-01-31T11:14:19.399Z,22.40
2019-01-31T11:15:19.410Z,22.50
2019-01-31T11:16:19.362Z,22.00
2019-01-31T11:17:19.421Z,22.10
2019-01-31T11:18:19.349Z,21.90
2019-01-31T11:19:19.333Z,22.70
2019-01-31T11:20:19.334Z,21.80
2019-01-31T11:21:19.348Z,23.20
2019-01-31T11:22:19.350Z,21.40
2019-01-31T11:23:19.312Z,22.80
2019-01-31T11:24:19.279Z,21.60
2019-01-31T11:25:19.285Z,21.80
2019-01-31T11:26:19.269Z,21.70
2019-01-31T11:27:19.247Z,21.10
2019-01-31T11:28:19.243Z,23.20
2019-01-31T11:29:19.219Z,21.30
2019-01-31T11:30:19.213Z,23.20
2019-01-31T11:31:19.218Z,23.00
2019-01-31T11:32:19.246Z,21.50
2019-01-31T11:33:19.181Z,21.80
2019-01-31T11:34:19.176Z,22.10
2019-01-31T11:35:19.165Z,21.20
2019-01-31T11:36:19.168Z,21.30
2019-01-31T11:37:19.141Z,22.00
2019-01-31T11:38:19.127Z,21.50
2019-01-31T11:39:19.117Z,20.20
2019-01-31T11:40:19.111Z,21.40
2019-01-31T11:41:19.088Z,21.60
2019-01-31T11:42:19.080Z,20.90
2019-01-31T11:43:19.107Z,21.60
2019-01-31T11:44:19.059Z,20.00
2019-01-31T11:45:19.097Z,22.20
2019-01-31T11:46:19.054Z,21.50
2019-01-31T11:47:19.027Z,21.90
2019-01-31T11:48:19.029Z,20.90
2019-01-31T11:49:19.023Z,22.50
2019-01-31T11:50:18.998Z,21.90
2019-01-31T11:51:18.987Z,20.30
2019-01-31T11:52:19.002Z,20.20
2019-01-31T11:53:18.970Z,19.90
2019-01-31T11:54:18.956Z,20.20
2019-01-31T11:55:18.964Z,20.00
2019-01-31T11:56:18.930Z,19.40
2019-01-31T11:57:18.930Z,19.80
2019-01-31T11:58:18.919Z,19.80
2019-01-31T11:59:18.892Z,19.10
2019-01-31T12:00:18.894Z,19.00
2019-01-31T12:01:18.875Z,19.90
2019-01-31T12:02:18.857Z,19.10
2019-01-31T12:03:18.858Z,18.30
2019-01-31T12:04:18.837Z,17.60
2019-01-31T12:05:18.831Z,17.50
2019-01-31T12:06:18.825Z,17.90
2019-01-31T12:07:18.808Z,17.40
2019-01-31T12:08:18.797Z,18.90
2019-01-31T12:09:18.784Z,18.80
2019-01-31T12:10:18.774Z,18.10
2019-01-31T12:11:18.763Z,19.10
2019-01-31T12:12:18.761Z,17.40
2019-01-31T12:13:23.584Z,18.40
2019-01-31T12:14:19.722Z,18.60
2019-01-31T12:15:18.718Z,17.30
2019-01-31T12:16:18.703Z,17.70
2019-01-31T12:17:18.704Z,17.40
2019-01-31T12:18:18.690Z,17.50
2019-01-31T12:19:18.684Z,15.20
2019-01-31T12:20:18.669Z,15.60
2019-01-31T12:21:18.650Z,14.50
2019-01-31T12:22:18.654Z,15.60
2019-01-31T12:23:18.642Z,14.20
2019-01-31T12:24:18.612Z,15.00
2019-01-31T12:25:18.606Z,16.70
2019-01-31T12:26:18.597Z,15.00
2019-01-31T12:27:18.583Z,15.20
2019-01-31T12:28:18.576Z,14.60
2019-01-31T12:29:18.571Z,15.40
2019-01-31T12:30:18.541Z,13.80
2019-01-31T12:31:18.546Z,15.80
2019-01-31T12:32:18.543Z,15.40
2019-01-31T12:33:18.519Z,14.40
2019-01-31T12:34:18.991Z,12.50
2019-01-31T12:35:18.493Z,12.20
2019-01-31T12:36:18.487Z,12.40
2019-01-31T12:37:18.470Z,12.40
2019-01-31T12:38:18.455Z,12.20
2019-01-31T12:39:18.453Z,11.20
2019-01-31T12:40:18.445Z,13.70
2019-01-31T12:41:18.431Z,13.20
2019-01-31T12:42:18.417Z,11.80
2019-01-31T12:43:18.403Z,10.40
2019-01-31T12:44:18.399Z,10.70
2019-01-31T12:45:18.385Z,10.10
2019-01-31T12:46:18.424Z,11.30
2019-01-31T12:47:18.365Z,11.90
2019-01-31T12:48:18.347Z,10.70
2019-01-31T12:49:18.341Z,12.20
2019-01-31T12:50:18.339Z,11.10
2019-01-31T12:51:18.326Z,12.10
2019-01-31T12:52:18.303Z,11.60